Latest Weather Observations for Luncheon Hill

IDT60801

Issued at 9:32 am EDT Friday 31 March 2017 (issued every 30 minutes, with the page automatically refreshed every 10 minutes)

About weather observations | Map of weather stations | Latest weather observations for TAS | Other Formats
Station Details ID: 091259 Name: LUNCHEON HILL (FORESTRY) Lat: -41.15 Lon: 145.15 Height: 344.0 m
Data from the previous 72 hours. | See also: Recent months at Luncheon Hill
Date/Time
EDT
Temp
°C
App
Temp
°C
Dew
Point
°C
Rel
Hum
%
Delta-T
°C
Wind Press
QNH
hPa
Press
MSL
hPa
Rain since
9am
mm
Dir  Spd
km/h
Gust
km/h
Spd
kts
Gust
kts
31/09:30am 9.1 6.3 5.1 76 1.8 SSW 9 11 5 6 - - 0.0
31/09:00am 8.4 6.0 5.2 80 1.5 S 7 9 4 5 - - 1.4
31/08:30am 7.2 4.4 5.0 86 1.0 SSE 9 11 5 6 - - 1.4
31/08:00am 6.2 2.5 4.4 88 0.8 SSE 13 15 7 8 - - 1.4
31/07:30am 5.6 1.8 4.1 90 0.7 SSE 13 15 7 8 - - 1.4
31/07:00am 5.3 1.1 4.0 91 0.6 S 15 15 8 8 - - 1.4
31/06:30am 5.1 0.9 3.9 92 0.5 S 15 17 8 9 - - 1.4
31/06:00am 5.0 0.8 3.8 92 0.5 SSE 15 17 8 9 - - 1.4
31/05:30am 5.1 1.0 4.1 93 0.4 S 15 17 8 9 - - 1.4
31/05:00am 5.2 1.1 4.2 93 0.4 S 15 17 8 9 - - 1.4
31/04:30am 5.0 0.4 3.8 92 0.5 S 17 20 9 11 - - 1.4
31/04:00am 5.2 1.1 4.2 93 0.4 SSE 15 19 8 10 - - 1.4
31/03:30am 5.3 0.8 4.3 93 0.4 S 17 20 9 11 - - 1.4
31/03:00am 5.3 0.8 4.3 93 0.4 S 17 20 9 11 - - 1.4
31/02:30am 5.4 1.0 4.5 94 0.4 S 17 22 9 12 - - 1.4
31/02:00am 5.2 0.3 4.3 94 0.4 S 19 22 10 12 - - 1.4
31/01:30am 5.3 1.2 4.3 93 0.4 S 15 20 8 11 - - 1.4
31/01:00am 5.6 1.2 4.6 93 0.4 S 17 20 9 11 - - 1.4
31/12:30am 5.7 0.9 4.7 93 0.4 S 19 22 10 12 - - 1.4
31/12:00am 5.6 0.8 4.6 93 0.4 SSW 19 20 10 11 - - 1.4
 
Date/Time
EDT
Temp
°C
App
Temp
°C
Dew
Point
°C
Rel
Hum
%
Delta-T
°C
Wind Press
QNH
hPa
Press
MSL
hPa
Rain since
9am
mm
Dir  Spd
km/h
Gust
km/h
Spd
kts
Gust
kts
30/11:30pm 5.8 1.4 4.6 92 0.5 S 17 24 9 13 - - 1.4
30/11:00pm 6.3 1.4 4.9 91 0.6 SSW 20 24 11 13 - - 1.4
30/10:30pm 6.7 1.8 5.0 89 0.8 SSW 20 28 11 15 - - 1.4
30/10:00pm 6.7 1.8 5.0 89 0.8 SSW 20 28 11 15 - - 1.4
30/09:30pm 6.7 1.8 4.9 88 0.8 SSW 20 24 11 13 - - 1.4
30/09:00pm 7.0 2.3 5.2 88 0.8 S 19 24 10 13 - - 1.4
30/08:30pm 7.2 2.5 5.2 87 0.9 S 19 24 10 13 - - 1.4
30/08:00pm 8.0 2.7 5.1 82 1.3 SSW 22 35 12 19 - - 1.4
30/07:30pm 7.9 3.0 5.2 83 1.2 SSW 20 32 11 17 - - 1.4
30/07:00pm 8.7 3.8 5.1 78 1.6 SSW 20 33 11 18 - - 1.4
30/06:30pm 9.4 4.7 5.2 75 1.9 SSW 19 28 10 15 - - 1.4
30/06:00pm 10.6 5.0 5.2 69 2.5 SSW 24 43 13 23 - - 1.4
30/05:30pm 10.1 5.3 5.5 73 2.1 SSW 20 35 11 19 - - 1.4
30/05:00pm 10.2 4.1 4.8 69 2.5 SSW 26 39 14 21 - - 1.4
30/04:30pm 11.7 5.7 5.1 64 3.1 SW 26 37 14 20 - - 1.4
30/04:00pm 11.9 6.2 4.9 62 3.3 SW 24 41 13 22 - - 1.4
30/03:34pm 11.7 5.3 5.3 65 3.0 SSW 28 46 15 25 - - 1.4
30/03:30pm 11.0 5.4 5.3 68 2.7 SSW 24 39 13 21 - - 1.4
30/03:00pm 10.8 4.5 5.6 70 2.4 SSW 28 44 15 24 - - 1.4
30/02:30pm 11.3 5.1 6.2 71 2.4 SSW 28 46 15 25 - - 1.4
30/02:00pm 10.3 4.1 6.1 75 2.0 SSW 28 50 15 27 - - 1.4
30/01:51pm 11.1 4.1 5.8 70 2.5 SSW 32 50 17 27 - - 1.4
30/01:30pm 11.0 5.5 7.7 80 1.6 SSW 26 43 14 23 - - 1.4
30/01:02pm 10.3 4.3 7.0 80 1.6 SSW 28 48 15 26 - - 1.4
30/01:00pm 10.7 5.2 7.6 81 1.5 SSW 26 43 14 23 - - 1.4
30/12:31pm 9.9 4.0 7.5 85 1.2 SSW 28 46 15 25 - - 1.4
30/12:30pm 10.0 4.6 7.8 86 1.1 SSW 26 46 14 25 - - 1.4
30/12:00pm 11.3 7.7 8.5 83 1.4 SW 17 26 9 14 - - 1.4
30/11:30am 10.1 6.0 8.0 87 1.0 SSW 19 32 10 17 - - 1.4
30/11:00am 9.3 5.3 8.2 93 0.5 SSW 19 28 10 15 - - 1.4
30/10:30am 10.0 7.1 8.1 88 0.9 WSW 13 19 7 10 - - 0.2
30/10:00am 8.7 5.6 7.3 91 0.7 SW 13 17 7 9 - - 0.2
30/09:30am 8.7 4.9 7.6 93 0.5 SSW 17 24 9 13 - - 0.0
30/09:00am 7.4 3.4 6.5 94 0.4 SSW 17 22 9 12 - - 10.2
30/08:30am 7.2 2.8 6.5 95 0.3 SSW 19 24 10 13 - - 10.2
30/08:00am 6.9 2.8 6.2 95 0.3 SSW 17 20 9 11 - - 10.2
30/07:30am 6.5 2.7 5.8 95 0.3 SSW 15 17 8 9 - - 10.2
30/07:00am 6.7 2.9 6.0 95 0.3 SSW 15 26 8 14 - - 10.2
30/06:30am 6.5 3.1 5.8 95 0.3 S 13 15 7 8 - - 9.6
30/06:00am 7.0 3.6 6.1 94 0.4 WSW 13 20 7 11 - - 9.6
30/05:30am 7.0 3.2 5.9 93 0.5 WNW 15 22 8 12 - - 9.6
30/05:00am 7.0 4.0 5.8 92 0.5 NW 11 20 6 11 - - 8.8
30/04:30am 7.1 4.1 6.0 93 0.5 SSW 11 15 6 8 - - 8.8
30/04:00am 7.3 3.6 6.2 93 0.5 WSW 15 20 8 11 - - 8.8
30/03:30am 7.3 3.2 6.4 94 0.4 WSW 17 28 9 15 - - 8.6
30/03:00am 7.3 3.2 6.2 93 0.5 WSW 17 32 9 17 - - 8.6
30/02:30am 7.3 3.3 6.6 95 0.3 WSW 17 20 9 11 - - 8.0
30/02:00am 7.0 3.0 6.6 97 0.2 SW 17 24 9 13 - - 8.0
30/01:30am 7.7 3.8 7.3 97 0.2 WSW 17 24 9 13 - - 8.0
30/01:00am 7.6 3.7 7.3 98 0.1 W 17 22 9 12 - - 7.8
30/12:30am 7.4 3.9 7.1 98 0.1 SW 15 22 8 12 - - 7.8
30/12:00am 7.6 4.1 7.3 98 0.1 WNW 15 20 8 11 - - 7.8
 
Date/Time
EDT
Temp
°C
App
Temp
°C
Dew
Point
°C
Rel
Hum
%
Delta-T
°C
Wind Press
QNH
hPa
Press
MSL
hPa
Rain since
9am
mm
Dir  Spd
km/h
Gust
km/h
Spd
kts
Gust
kts
29/11:30pm 7.6 4.5 7.3 98 0.1 WNW 13 17 7 9 - - 7.8
29/11:00pm 7.4 4.3 7.1 98 0.1 WNW 13 19 7 10 - - 7.8
29/10:30pm 7.2 4.0 6.9 98 0.1 W 13 17 7 9 - - 7.8
29/10:00pm 7.5 4.4 7.2 98 0.1 W 13 17 7 9 - - 7.8
29/09:30pm 7.7 5.4 7.4 98 0.1 W 9 13 5 7 - - 7.8
29/09:00pm 8.0 5.8 7.7 98 0.1 WSW 9 11 5 6 - - 7.8
29/08:30pm 8.1 5.5 7.8 98 0.1 WSW 11 17 6 9 - - 7.8
29/08:00pm 8.2 5.2 7.9 98 0.1 S 13 17 7 9 - - 7.8
29/07:30pm 8.2 4.1 7.9 98 0.1 SSW 19 30 10 16 - - 7.4
29/07:00pm 8.3 4.0 8.0 98 0.1 SSW 20 32 11 17 - - 6.8
29/06:30pm 8.3 2.1 8.0 98 0.1 SSW 30 44 16 24 - - 6.0
29/06:00pm 8.7 3.0 8.4 98 0.1 SSW 28 46 15 25 - - 5.2
29/05:34pm 8.9 2.9 8.5 97 0.2 SSW 30 48 16 26 - - 4.6
29/05:30pm 9.1 2.7 8.6 97 0.2 SSW 32 48 17 26 - - 4.4
29/05:05pm 9.7 4.2 9.2 97 0.3 SSW 28 46 15 25 - - 3.2
29/05:00pm 9.8 4.3 9.3 97 0.3 SSW 28 39 15 21 - - 3.0
29/04:51pm 10.1 4.7 9.6 97 0.3 SW 28 46 15 25 - - 2.8
29/04:30pm 10.6 6.1 10.0 96 0.3 SW 24 33 13 18 - - 2.2
29/04:00pm 11.1 7.4 10.2 94 0.5 SW 20 33 11 18 - - 2.0
29/03:42pm 14.0 6.5 12.6 91 0.8 NW 44 67 24 36 - - 1.2
29/03:33pm 14.3 8.0 12.3 88 1.1 NW 37 56 20 30 - - 0.8
29/03:30pm 14.4 8.5 12.4 88 1.1 NW 35 52 19 28 - - 0.8
29/03:10pm 15.3 9.1 12.6 84 1.5 NW 37 56 20 30 - - 0.6
29/03:00pm 15.2 9.3 12.3 83 1.6 NNW 35 50 19 27 - - 0.6
29/02:30pm 16.0 9.5 11.8 76 2.3 NNW 37 52 20 28 - - 0.6
29/02:00pm 16.9 10.6 12.4 75 2.5 NW 37 50 20 27 - - 0.6
29/01:38pm 16.6 11.6 13.5 82 1.8 NW 32 50 17 27 - - 0.6
29/01:30pm 16.0 12.7 14.0 88 1.2 NW 24 35 13 19 - - 0.6
29/01:00pm 14.7 10.4 13.2 91 0.8 NW 28 43 15 23 - - 0.6
29/12:30pm 14.7 12.2 14.1 96 0.3 NNW 20 30 11 16 - - 0.6
29/12:00pm 14.3 10.5 13.5 95 0.5 NNW 26 33 14 18 - - 0.6
29/11:30am 14.5 10.0 13.9 96 0.3 NNW 30 48 16 26 - - 0.4
29/11:06am 14.1 9.1 13.3 95 0.4 NNW 32 50 17 27 - - 0.4
29/11:00am 14.1 8.5 13.3 95 0.4 NNW 35 50 19 27 - - 0.4
29/10:52am 14.0 8.4 13.4 96 0.3 NNW 35 54 19 29 - - 0.4
29/10:30am 13.7 8.6 13.1 96 0.3 NNW 32 46 17 25 - - 0.4
29/10:00am 13.8 8.6 12.9 94 0.5 N 32 41 17 22 - - 0.0
29/09:30am 13.5 8.3 12.7 95 0.4 N 32 46 17 25 - - 0.0
29/09:14am 13.5 8.2 12.6 94 0.5 N 32 50 17 27 - - 0.0
29/09:00am 13.6 8.7 12.5 93 0.6 N 30 41 16 22 - - 2.0
29/08:30am 13.4 8.9 12.5 94 0.5 N 28 37 15 20 - - 2.0
29/08:00am 13.3 9.1 12.5 95 0.4 N 26 33 14 18 - - 2.0
29/07:30am 13.1 8.9 12.5 96 0.3 N 26 35 14 19 - - 2.0
29/07:00am 12.9 9.1 12.4 97 0.3 N 24 32 13 17 - - 2.0
29/06:30am 12.9 8.7 12.4 97 0.3 N 26 33 14 18 - - 2.0
29/06:00am 13.0 8.9 12.7 98 0.2 N 26 32 14 17 - - 2.0
29/05:30am 13.3 9.7 13.0 98 0.2 N 24 30 13 16 - - 2.0
29/05:00am 13.2 9.9 12.9 98 0.2 N 22 28 12 15 - - 2.0
29/04:30am 13.1 10.1 12.6 97 0.3 N 20 26 11 14 - - 2.0
29/04:00am 13.0 10.6 12.5 97 0.3 N 17 20 9 11 - - 2.0
29/03:30am 13.1 10.7 12.6 97 0.3 N 17 22 9 12 - - 2.0
29/03:00am 13.1 9.7 12.6 97 0.3 N 22 30 12 16 - - 1.8
29/02:30am 13.0 10.0 12.4 96 0.3 NNW 20 26 11 14 - - 1.8
29/02:00am 12.9 10.7 12.1 95 0.4 NW 15 24 8 13 - - 1.4
29/01:30am 12.9 10.3 12.0 94 0.5 N 17 19 9 10 - - 0.8
29/01:00am 13.1 9.9 12.0 93 0.6 NW 20 28 11 15 - - 0.8
29/12:30am 13.3 10.0 11.7 90 0.9 NNW 20 26 11 14 - - 0.8
29/12:00am 13.3 10.0 11.7 90 0.9 N 20 28 11 15 - - 0.8
 
Date/Time
EDT
Temp
°C
App
Temp
°C
Dew
Point
°C
Rel
Hum
%
Delta-T
°C
Wind Press
QNH
hPa
Press
MSL
hPa
Rain since
9am
mm
Dir  Spd
km/h
Gust
km/h
Spd
kts
Gust
kts
28/11:30pm 13.2 9.9 11.6 90 0.9 NNW 20 26 11 14 - - 0.8
28/11:00pm 13.2 9.5 11.6 90 0.9 NNW 22 28 12 15 - - 0.8
28/10:30pm 13.1 9.8 11.5 90 0.9 NNW 20 24 11 13 - - 0.8
28/10:00pm 13.0 9.8 11.4 90 0.9 NNW 19 24 10 13 - - 0.8
28/09:30pm 13.0 10.3 11.6 91 0.8 NNW 17 22 9 12 - - 0.8
28/09:00pm 12.8 9.5 11.5 92 0.7 NNW 20 26 11 14 - - 0.8
28/08:30pm 13.1 9.8 11.5 90 0.9 NW 20 26 11 14 - - 0.8
28/08:00pm 13.1 8.6 11.5 90 0.9 NW 26 33 14 18 - - 0.8
28/07:44pm 13.3 8.4 11.2 87 1.1 NW 28 43 15 23 - - 0.8
28/07:30pm 13.7 10.4 11.0 84 1.4 NNW 19 22 10 12 - - 0.8
28/07:00pm 13.8 10.2 10.6 81 1.7 NW 20 28 11 15 - - 0.8
28/06:30pm 14.0 10.1 10.8 81 1.7 NW 22 28 12 15 - - 0.8
28/06:00pm 13.9 9.8 11.4 85 1.4 WNW 24 32 13 17 - - 0.8
28/05:30pm 14.1 10.7 11.1 82 1.6 WNW 20 26 11 14 - - 0.8
28/05:00pm 14.0 9.5 11.5 85 1.4 WNW 26 35 14 19 - - 0.8
28/04:30pm 14.7 10.4 10.9 78 2.0 WNW 24 32 13 17 - - 0.8
28/04:00pm 15.3 10.2 10.5 73 2.6 WNW 28 37 15 20 - - 0.8
28/03:43pm 15.1 9.2 10.3 73 2.6 NW 32 50 17 27 - - 0.8
28/03:30pm 15.5 10.1 10.9 74 2.5 WNW 30 41 16 22 - - 0.8
28/03:00pm 15.1 12.0 12.2 83 1.6 WNW 20 30 11 16 - - 0.8
28/02:30pm 14.7 9.9 11.5 81 1.7 W 28 39 15 21 - - 0.8
28/02:00pm 14.0 9.7 12.2 89 1.0 WNW 26 35 14 19 - - 0.8
28/01:30pm 13.1 8.5 12.2 94 0.5 WNW 28 39 15 21 - - 0.8
28/01:00pm 14.2 10.2 11.7 85 1.4 WNW 24 33 13 18 - - 0.6
28/12:30pm 14.6 11.2 12.5 87 1.2 NW 22 32 12 17 - - 0.6
28/12:00pm 13.0 7.6 12.1 94 0.5 WNW 32 50 17 27 - - 0.6
28/11:57am 12.7 7.0 11.8 94 0.5 WNW 33 52 18 28 - - 0.6
28/11:51am 12.8 8.0 11.7 93 0.6 WNW 28 52 15 28 - - 0.6
28/11:30am 13.5 10.5 12.6 94 0.5 WNW 20 30 11 16 - - 0.2
28/11:00am 12.7 8.8 12.1 96 0.3 WNW 24 33 13 18 - - 0.2
28/10:30am 12.2 8.1 11.4 95 0.4 WNW 24 35 13 19 - - 0.2
28/10:00am 12.0 8.3 11.4 96 0.3 WNW 22 33 12 18 - - 0.2

Other Formats:

Comma delimited format used in spreadsheet applications
http://www.bom.gov.au/fwo/IDT60801/IDT60801.95956.axf

JavaScript Object Notation format (JSON) in row-major order
http://www.bom.gov.au/fwo/IDT60801/IDT60801.95956.json